YLD weather

Chapleau Airport
Chapleau, Ontario, Canada

Public forecast

Using degrees Celsius for public forecast. Weather courtesy of forecast.io.

METAR (pilot weather report)

Retrieved 2019/05/20 18:00 UTC (14 minutes ago):

CYLD 201800Z 32007G18KT 300V360 10SM -SHRA BKN022 06/02 A2991 RMK SC6 SLP148

TAF (pilot weather forecast)

Retrieved 2019/05/20 14:00 UTC (4 hours ago):

TAF CYLD 201345Z 2014/2101 01012KT 4SM -RASN OVC007 TEMPO 2014/2017 P6SM NSW SCT007 OVC050 FM201700 34010G20KT P6SM BKN040 RMK NXT FCST BY 202000Z